createdAt,value
2023-05-24T00:01:37.817Z,100361.06
2023-05-24T00:04:05.996Z,100370.81
2023-05-24T00:06:37.329Z,100363.22
2023-05-24T00:09:05.652Z,100361.31
2023-05-24T00:11:33.586Z,100362.38
2023-05-24T00:14:01.570Z,100365.00
2023-05-24T00:16:29.664Z,100352.16
2023-05-24T00:18:59.247Z,100349.13
2023-05-24T00:21:27.296Z,100357.81
2023-05-24T00:23:56.638Z,100361.50
2023-05-24T00:26:24.791Z,100354.84
2023-05-24T00:28:52.760Z,100365.59
2023-05-24T00:31:20.824Z,100359.50
2023-05-24T00:33:48.858Z,100347.88
2023-05-24T00:36:16.791Z,100344.94
2023-05-24T00:38:44.748Z,100347.13
2023-05-24T00:41:14.082Z,100340.31
2023-05-24T00:43:43.385Z,100344.28
2023-05-24T00:46:18.229Z,100344.41
2023-05-24T00:48:47.129Z,100345.47
2023-05-24T00:51:15.784Z,100342.00
2023-05-24T00:53:49.916Z,100342.91
2023-05-24T00:56:19.506Z,100346.69
2023-05-24T00:58:48.601Z,100345.84
2023-05-24T01:01:16.577Z,100340.91
2023-05-24T01:03:44.632Z,100336.75
2023-05-24T01:06:16.139Z,100345.38
2023-05-24T01:08:56.228Z,100341.69
2023-05-24T01:11:35.576Z,100346.56
2023-05-24T01:14:16.404Z,100347.19
2023-05-24T01:16:51.792Z,100337.34
2023-05-24T01:19:43.520Z,100348.72
2023-05-24T01:22:25.544Z,100359.19
2023-05-24T01:25:03.813Z,100355.09
2023-05-24T01:27:35.035Z,100349.34
2023-05-24T01:30:04.708Z,100351.44
2023-05-24T01:32:33.076Z,100359.13
2023-05-24T01:35:01.271Z,100359.34
2023-05-24T01:37:29.246Z,100352.88
2023-05-24T01:39:57.447Z,100357.59
2023-05-24T01:42:28.446Z,100353.94
2023-05-24T01:45:07.292Z,100356.09
2023-05-24T01:47:46.578Z,100351.34
2023-05-24T01:50:22.479Z,100351.91
2023-05-24T01:52:53.589Z,100356.41
2023-05-24T01:55:23.205Z,100359.19
2023-05-24T01:57:52.887Z,100362.97
2023-05-24T02:00:23.628Z,100363.19
2023-05-24T02:02:52.612Z,100363.44
2023-05-24T02:05:20.751Z,100366.63
2023-05-24T02:07:48.737Z,100369.25
2023-05-24T02:10:16.925Z,100364.16
2023-05-24T02:12:44.895Z,100364.25
2023-05-24T02:15:14.957Z,100364.13
2023-05-24T02:17:46.185Z,100366.50
2023-05-24T02:20:14.667Z,100364.34
2023-05-24T02:22:42.620Z,100370.03
2023-05-24T02:25:10.948Z,100371.72
2023-05-24T02:27:39.151Z,100375.03
2023-05-24T02:30:08.598Z,100377.06
2023-05-24T02:32:36.645Z,100378.72
2023-05-24T02:35:07.723Z,100385.63
2023-05-24T02:37:35.911Z,100386.69
2023-05-24T02:40:04.325Z,100385.00
2023-05-24T02:42:32.304Z,100382.63
2023-05-24T02:45:00.319Z,100376.13
2023-05-24T02:47:28.557Z,100381.59
2023-05-24T02:49:57.299Z,100359.84
2023-05-24T02:52:26.869Z,100380.03
2023-05-24T02:54:54.836Z,100382.66
2023-05-24T02:57:22.958Z,100380.03
2023-05-24T02:59:51.065Z,100374.25
2023-05-24T03:02:19.637Z,100376.25
2023-05-24T03:04:47.613Z,100373.03
2023-05-24T03:07:15.570Z,100374.03
2023-05-24T03:09:44.988Z,100375.09
2023-05-24T03:12:14.250Z,100379.25
2023-05-24T03:14:42.216Z,100385.03
2023-05-24T03:17:10.177Z,100386.59
2023-05-24T03:19:38.187Z,100386.47
2023-05-24T03:22:06.309Z,100389.53
2023-05-24T03:24:34.684Z,100382.31
2023-05-24T03:27:04.056Z,100382.19
2023-05-24T03:29:32.461Z,100381.81
2023-05-24T03:32:00.597Z,100383.13
2023-05-24T03:34:28.631Z,100382.50
2023-05-24T03:36:56.609Z,100376.81
2023-05-24T03:39:24.611Z,100378.22
2023-05-24T03:41:52.558Z,100380.09
2023-05-24T03:44:21.887Z,100382.19
2023-05-24T03:46:49.814Z,100366.81
2023-05-24T03:49:17.834Z,100389.31
2023-05-24T03:51:46.229Z,100393.56
2023-05-24T03:54:14.245Z,100398.91
2023-05-24T03:56:42.208Z,100400.94
2023-05-24T03:59:10.178Z,100391.56
2023-05-24T04:01:39.523Z,100391.66
2023-05-24T04:04:07.469Z,100387.19
2023-05-24T04:06:36.868Z,100393.56
2023-05-24T04:09:05.989Z,100400.13
2023-05-24T04:11:33.965Z,100396.31
2023-05-24T04:14:01.967Z,100404.59
2023-05-24T04:16:34.093Z,100403.91
2023-05-24T04:19:04.362Z,100409.41
2023-05-24T04:21:33.415Z,100403.56
2023-05-24T04:24:01.744Z,100407.25
2023-05-24T04:26:29.963Z,100407.00
2023-05-24T04:28:58.361Z,100406.28
2023-05-24T04:31:29.461Z,100408.53
2023-05-24T04:33:59.054Z,100414.34
2023-05-24T04:36:29.062Z,100410.72
2023-05-24T04:41:32.448Z,100413.41
2023-05-24T04:44:00.816Z,100414.97
2023-05-24T04:46:29.128Z,100414.31
2023-05-24T04:48:57.097Z,100418.97
2023-05-24T04:51:25.234Z,100415.13
2023-05-24T04:53:54.706Z,100415.78
2023-05-24T04:56:22.991Z,100426.50
2023-05-24T04:58:51.054Z,100424.06
2023-05-24T05:01:19.164Z,100434.78
2023-05-24T05:03:47.225Z,100430.41
2023-05-24T05:06:15.394Z,100435.75
2023-05-24T05:08:43.708Z,100430.88
2023-05-24T05:11:13.073Z,100424.97
2023-05-24T05:13:40.989Z,100431.75
2023-05-24T05:16:09.527Z,100428.66
2023-05-24T05:18:37.489Z,100432.28
2023-05-24T05:21:05.495Z,100438.53
2023-05-24T05:23:33.461Z,100434.25
2023-05-24T05:26:01.439Z,100442.84
2023-05-24T05:28:30.748Z,100449.31
2023-05-24T05:30:58.898Z,100450.44
2023-05-24T05:33:26.960Z,100445.31
2023-05-24T05:35:55.195Z,100454.16
2023-05-24T05:38:23.177Z,100458.00
2023-05-24T05:40:51.266Z,100456.75
2023-05-24T05:43:19.215Z,100449.16
2023-05-24T05:45:48.655Z,100468.94
2023-05-24T05:48:16.619Z,100467.22
2023-05-24T05:50:44.652Z,100471.81
2023-05-24T05:53:12.667Z,100467.38
2023-05-24T05:55:40.616Z,100472.78
2023-05-24T05:58:08.553Z,100482.06
2023-05-24T06:00:36.629Z,100473.91
2023-05-24T06:03:06.125Z,100479.13
2023-05-24T06:05:34.163Z,100477.09
2023-05-24T06:08:02.125Z,100476.56
2023-05-24T06:10:30.095Z,100475.22
2023-05-24T06:12:58.078Z,100480.06
2023-05-24T06:15:26.106Z,100475.53
2023-05-24T06:17:55.326Z,100469.88
2023-05-24T06:20:24.751Z,100472.66
2023-05-24T06:22:52.681Z,100483.56
2023-05-24T06:25:21.163Z,100477.06
2023-05-24T06:27:49.133Z,100483.19
2023-05-24T06:30:17.130Z,100481.91
2023-05-24T06:32:45.160Z,100484.19
2023-05-24T06:35:13.132Z,100476.47
2023-05-24T06:37:42.475Z,100474.16
2023-05-24T06:40:11.207Z,100488.19
2023-05-24T06:42:40.789Z,100473.47
2023-05-24T06:45:10.013Z,100481.19
2023-05-24T06:47:38.165Z,100482.13
2023-05-24T06:50:07.317Z,100476.94
2023-05-24T06:52:35.289Z,100475.97
2023-05-24T06:55:05.053Z,100479.78
2023-05-24T06:57:32.998Z,100471.28
2023-05-24T07:00:00.964Z,100475.03
2023-05-24T07:02:29.109Z,100474.28
2023-05-24T07:04:57.260Z,100469.81
2023-05-24T07:07:25.695Z,100470.06
2023-05-24T07:09:53.704Z,100471.34
2023-05-24T07:12:23.568Z,100477.72
2023-05-24T07:14:51.785Z,100471.16
2023-05-24T07:17:19.751Z,100470.25
2023-05-24T07:19:47.711Z,100471.00
2023-05-24T07:22:16.052Z,100469.09
2023-05-24T07:24:44.051Z,100469.53
2023-05-24T07:27:12.019Z,100470.66
2023-05-24T07:29:41.393Z,100466.84
2023-05-24T07:32:09.926Z,100459.09
2023-05-24T07:34:39.741Z,100460.22
2023-05-24T07:37:07.696Z,100470.22
2023-05-24T07:39:35.745Z,100466.28
2023-05-24T07:42:03.721Z,100464.53
2023-05-24T07:44:31.681Z,100473.03
2023-05-24T07:47:02.511Z,100460.91
2023-05-24T07:49:30.461Z,100468.75
2023-05-24T07:51:59.672Z,100475.94
2023-05-24T07:54:27.694Z,100472.31
2023-05-24T07:56:55.714Z,100476.22
2023-05-24T07:59:23.969Z,100477.56
2023-05-24T08:01:52.656Z,100484.44
2023-05-24T08:04:22.409Z,100470.69
2023-05-24T08:06:50.826Z,100472.13
2023-05-24T08:09:18.871Z,100480.25
2023-05-24T08:11:46.830Z,100468.50
2023-05-24T08:14:14.865Z,100477.63
2023-05-24T08:16:42.988Z,100474.06
2023-05-24T08:19:10.952Z,100472.69
2023-05-24T08:21:42.066Z,100472.06
2023-05-24T08:24:09.988Z,100463.53
2023-05-24T08:26:38.196Z,100472.94
2023-05-24T08:29:06.244Z,100473.19
2023-05-24T08:31:34.226Z,100479.84
2023-05-24T08:34:02.724Z,100482.78
2023-05-24T08:36:30.678Z,100478.19
2023-05-24T08:39:00.296Z,100477.81
2023-05-24T08:41:29.577Z,100480.88
2023-05-24T08:44:02.526Z,100475.63
2023-05-24T08:46:30.840Z,100478.91
2023-05-24T08:48:59.975Z,100454.41
2023-05-24T08:51:29.240Z,100480.94
2023-05-24T08:53:59.805Z,100479.59
2023-05-24T08:56:28.907Z,100475.78
2023-05-24T08:58:57.152Z,100476.16
2023-05-24T09:01:27.741Z,100478.19
2023-05-24T09:03:58.221Z,100481.88
2023-05-24T09:06:27.928Z,100480.16
2023-05-24T09:08:57.065Z,100477.16
2023-05-24T09:11:28.174Z,100485.78
2023-05-24T09:13:58.279Z,100484.13
2023-05-24T09:16:26.530Z,100475.50
2023-05-24T09:18:54.480Z,100482.31
2023-05-24T09:21:23.152Z,100490.69
2023-05-24T09:23:51.348Z,100482.94
2023-05-24T09:26:19.379Z,100483.16
2023-05-24T09:28:49.551Z,100488.31
2023-05-24T09:31:17.559Z,100481.91
2023-05-24T09:33:49.728Z,100478.03
2023-05-24T09:36:18.692Z,100483.38
2023-05-24T09:38:46.653Z,100478.00
2023-05-24T09:41:14.695Z,100468.13
2023-05-24T09:43:50.890Z,100481.72
2023-05-24T09:46:20.021Z,100476.34
2023-05-24T09:48:57.640Z,100467.34
2023-05-24T09:51:26.267Z,100477.19
2023-05-24T09:53:58.568Z,100474.53
2023-05-24T09:56:27.632Z,100473.06
2023-05-24T09:58:58.058Z,100470.81
2023-05-24T10:01:27.028Z,100463.19
2023-05-24T10:03:56.179Z,100459.91
2023-05-24T10:06:25.165Z,100460.34
2023-05-24T10:08:54.470Z,100457.69
2023-05-24T10:11:22.690Z,100457.28
2023-05-24T10:13:51.357Z,100463.25
2023-05-24T10:16:20.957Z,100438.59
2023-05-24T10:18:48.983Z,100455.84
2023-05-24T10:21:18.984Z,100449.69
2023-05-24T10:23:54.446Z,100445.81
2023-05-24T10:26:26.232Z,100447.44
2023-05-24T10:28:58.968Z,100445.59
2023-05-24T10:31:33.225Z,100444.16
2023-05-24T10:34:08.478Z,100453.59
2023-05-24T10:36:52.933Z,100440.88
2023-05-24T10:39:22.695Z,100436.38
2023-05-24T10:41:51.059Z,100444.34
2023-05-24T10:44:21.283Z,100441.09
2023-05-24T10:47:09.338Z,100436.94
2023-05-24T10:49:37.351Z,100429.38
2023-05-24T10:52:09.383Z,100426.69
2023-05-24T10:54:39.830Z,100419.28
2023-05-24T10:57:09.628Z,100416.41
2023-05-24T10:59:39.438Z,100417.69
2023-05-24T11:02:13.893Z,100407.81
2023-05-24T11:04:44.505Z,100418.28
2023-05-24T11:07:15.352Z,100402.88
2023-05-24T11:09:47.243Z,100410.03
2023-05-24T11:12:17.755Z,100404.53
2023-05-24T11:14:49.985Z,100403.47
2023-05-24T11:17:20.694Z,100407.03
2023-05-24T11:19:51.825Z,100407.81
2023-05-24T11:22:22.122Z,100397.25
2023-05-24T11:24:50.507Z,100400.31
2023-05-24T11:27:18.536Z,100398.94
2023-05-24T11:29:47.879Z,100402.06
2023-05-24T11:32:17.302Z,100400.09
2023-05-24T11:34:47.869Z,100395.91
2023-05-24T11:37:17.999Z,100390.78
2023-05-24T11:39:52.569Z,100387.44
2023-05-24T11:42:23.432Z,100380.53
2023-05-24T11:44:51.659Z,100380.81
2023-05-24T11:47:22.021Z,100379.50
2023-05-24T11:49:52.863Z,100373.94
2023-05-24T11:52:21.373Z,100379.00
2023-05-24T11:54:50.841Z,100366.13
2023-05-24T11:57:21.116Z,100359.75
2023-05-24T11:59:49.634Z,100367.97
2023-05-24T12:02:18.115Z,100358.88
2023-05-24T12:04:46.933Z,100354.63
2023-05-24T12:07:16.878Z,100364.09
2023-05-24T12:09:44.934Z,100361.63
2023-05-24T12:12:12.947Z,100354.03
2023-05-24T12:14:41.155Z,100352.03
2023-05-24T12:17:17.177Z,100351.19
2023-05-24T12:19:45.232Z,100348.94
2023-05-24T12:22:13.197Z,100343.00
2023-05-24T12:24:42.586Z,100347.53
2023-05-24T12:27:10.611Z,100344.88
2023-05-24T12:29:40.752Z,100338.25
2023-05-24T12:32:14.006Z,100340.28
2023-05-24T12:34:43.953Z,100338.22
2023-05-24T12:37:13.777Z,100338.22
2023-05-24T12:39:44.456Z,100315.84
2023-05-24T12:42:14.032Z,100330.00
2023-05-24T12:44:42.483Z,100335.16
2023-05-24T12:47:11.019Z,100333.75
2023-05-24T12:49:38.996Z,100330.72
2023-05-24T12:52:07.341Z,100323.53
2023-05-24T12:54:35.333Z,100331.94
2023-05-24T12:57:05.280Z,100341.78
2023-05-24T12:59:35.134Z,100327.22
2023-05-24T13:02:03.206Z,100334.78
2023-05-24T13:04:33.795Z,100328.88
2023-05-24T13:07:02.980Z,100322.91
2023-05-24T13:09:30.988Z,100322.66
2023-05-24T13:11:58.968Z,100326.34
2023-05-24T13:14:28.670Z,100325.94
2023-05-24T13:16:56.650Z,100309.34
2023-05-24T13:19:24.605Z,100316.78
2023-05-24T13:21:52.643Z,100296.44
2023-05-24T13:24:20.643Z,100321.28
2023-05-24T13:26:49.351Z,100273.28
2023-05-24T13:29:34.298Z,100306.28
2023-05-24T13:32:07.077Z,100303.63
2023-05-24T13:34:35.066Z,100295.63
2023-05-24T13:37:03.207Z,100305.69
2023-05-24T13:39:31.212Z,100310.59
2023-05-24T13:42:01.066Z,100299.72
2023-05-24T13:44:29.556Z,100309.59
2023-05-24T13:46:57.587Z,100306.06
2023-05-24T13:49:27.786Z,100296.44
2023-05-24T13:51:58.409Z,100295.63
2023-05-24T13:54:27.813Z,100299.09
2023-05-24T13:56:57.627Z,100292.97
2023-05-24T13:59:25.861Z,100289.28
2023-05-24T14:01:54.010Z,100287.63
2023-05-24T14:04:22.044Z,100292.97
2023-05-24T14:06:51.404Z,100288.66
2023-05-24T14:09:21.342Z,100294.19
2023-05-24T14:11:49.537Z,100296.44
2023-05-24T14:16:51.882Z,100292.53
2023-05-24T14:19:19.948Z,100292.13
2023-05-24T14:21:47.906Z,100296.22
2023-05-24T14:24:17.301Z,100295.63
2023-05-24T14:26:47.564Z,100286.81
2023-05-24T14:29:15.593Z,100282.50
2023-05-24T14:31:43.678Z,100288.03
2023-05-24T14:34:12.138Z,100272.66
2023-05-24T14:36:41.664Z,100278.19
2023-05-24T14:39:10.245Z,100282.06
2023-05-24T14:41:39.563Z,100275.09
2023-05-24T14:44:07.512Z,100288.03
2023-05-24T14:46:36.048Z,100282.28
2023-05-24T14:49:04.823Z,100279.63
2023-05-24T14:51:32.822Z,100280.44
2023-05-24T14:54:00.882Z,100268.34
2023-05-24T14:56:29.065Z,100267.75
2023-05-24T14:58:59.449Z,100253.16
2023-05-24T15:01:27.505Z,100272.63
2023-05-24T15:03:55.594Z,100259.25
2023-05-24T15:06:23.678Z,100267.44
2023-05-24T15:08:52.333Z,100266.63
2023-05-24T15:11:20.302Z,100255.94
2023-05-24T15:13:48.210Z,100268.28
2023-05-24T15:16:18.138Z,100259.63
2023-05-24T15:18:46.385Z,100264.06
2023-05-24T15:21:14.349Z,100257.00
2023-05-24T15:23:42.316Z,100270.28
2023-05-24T15:26:10.258Z,100262.63
2023-05-24T15:28:39.616Z,100254.34
2023-05-24T15:31:07.676Z,100266.47
2023-05-24T15:33:38.253Z,100263.50
2023-05-24T15:36:06.885Z,100269.13
2023-05-24T15:38:35.132Z,100266.59
2023-05-24T15:41:03.942Z,100273.50
2023-05-24T15:43:31.949Z,100284.31
2023-05-24T15:45:59.948Z,100278.16
2023-05-24T15:48:28.185Z,100279.72
2023-05-24T15:51:53.551Z,100276.53
2023-05-24T15:53:45.629Z,100279.28
2023-05-24T15:56:13.680Z,100280.25
2023-05-24T15:58:41.648Z,100275.06
2023-05-24T16:01:09.730Z,100281.50
2023-05-24T16:03:38.461Z,100278.41
2023-05-24T16:06:08.636Z,100280.34
2023-05-24T16:08:36.602Z,100273.19
2023-05-24T16:11:08.257Z,100280.03
2023-05-24T16:13:36.298Z,100284.56
2023-05-24T16:16:04.335Z,100285.28
2023-05-24T16:18:34.651Z,100292.63
2023-05-24T16:21:02.772Z,100303.50
2023-05-24T16:23:32.183Z,100304.88
2023-05-24T16:26:00.143Z,100301.50
2023-05-24T16:28:28.117Z,100306.34
2023-05-24T16:30:57.513Z,100309.06
2023-05-24T16:33:26.089Z,100313.59
2023-05-24T16:35:56.722Z,100317.56
2023-05-24T16:38:25.687Z,100317.41
2023-05-24T16:40:55.561Z,100319.44
2023-05-24T16:43:23.729Z,100321.81
2023-05-24T16:45:51.963Z,100329.84
2023-05-24T16:48:21.745Z,100326.44
2023-05-24T16:50:50.474Z,100333.59
2023-05-24T16:53:20.448Z,100335.50
2023-05-24T16:55:53.587Z,100333.66
2023-05-24T16:58:23.715Z,100330.44
2023-05-24T17:00:54.314Z,100337.47
2023-05-24T17:03:28.156Z,100340.34
2023-05-24T17:06:01.997Z,100342.31
2023-05-24T17:08:32.371Z,100348.13
2023-05-24T17:11:00.327Z,100342.38
2023-05-24T17:13:29.718Z,100348.03
2023-05-24T17:15:58.440Z,100354.53
2023-05-24T17:18:29.296Z,100360.13
2023-05-24T17:20:57.686Z,100365.63
2023-05-24T17:23:26.214Z,100370.09
2023-05-24T17:25:55.587Z,100371.38
2023-05-24T17:28:27.349Z,100370.50
2023-05-24T17:30:57.473Z,100362.16
2023-05-24T17:33:26.314Z,100373.41
2023-05-24T17:35:56.591Z,100380.72
2023-05-24T17:38:25.515Z,100377.25
2023-05-24T17:40:57.124Z,100373.91
2023-05-24T17:43:28.803Z,100370.44
2023-05-24T17:46:03.668Z,100368.44
2023-05-24T17:48:32.617Z,100371.47
2023-05-24T17:51:01.983Z,100369.63
2023-05-24T17:53:32.362Z,100367.50
2023-05-24T17:56:00.592Z,100375.59
2023-05-24T17:58:28.755Z,100375.59
2023-05-24T18:00:58.196Z,100380.41
2023-05-24T18:03:26.346Z,100378.41
2023-05-24T18:05:54.269Z,100382.56
2023-05-24T18:08:23.119Z,100391.69
2023-05-24T18:10:51.053Z,100390.38
2023-05-24T18:13:19.467Z,100388.22
2023-05-24T18:15:47.483Z,100385.72
2023-05-24T18:18:17.285Z,100388.84
2023-05-24T18:20:45.408Z,100397.13
2023-05-24T18:23:13.399Z,100398.28
2023-05-24T18:25:43.970Z,100395.47
2023-05-24T18:28:12.309Z,100415.13
2023-05-24T18:30:40.282Z,100414.25
2023-05-24T18:33:08.757Z,100424.66
2023-05-24T18:35:38.358Z,100421.34
2023-05-24T18:38:06.349Z,100428.44
2023-05-24T18:40:34.327Z,100438.91
2023-05-24T18:43:02.586Z,100438.28
2023-05-24T18:45:30.522Z,100442.72
2023-05-24T18:47:58.872Z,100448.59
2023-05-24T18:50:26.867Z,100449.84
2023-05-24T18:52:56.205Z,100449.50
2023-05-24T18:55:24.164Z,100445.75
2023-05-24T18:57:52.253Z,100445.75
2023-05-24T19:00:22.829Z,100442.78
2023-05-24T19:02:51.118Z,100451.91
2023-05-24T19:05:19.126Z,100451.38
2023-05-24T19:07:47.068Z,100462.03
2023-05-24T19:10:16.408Z,100465.22
2023-05-24T19:12:44.451Z,100466.66
2023-05-24T19:15:12.539Z,100468.63
2023-05-24T19:17:40.515Z,100476.91
2023-05-24T19:20:09.296Z,100475.91
2023-05-24T19:22:37.254Z,100487.81
2023-05-24T19:25:05.698Z,100477.50
2023-05-24T19:27:36.283Z,100469.81
2023-05-24T19:30:06.918Z,100472.69
2023-05-24T19:32:35.841Z,100474.66
2023-05-24T19:35:03.954Z,100481.88
2023-05-24T19:37:31.890Z,100483.81
2023-05-24T19:40:00.344Z,100476.66
2023-05-24T19:42:28.283Z,100474.03
2023-05-24T19:44:57.602Z,100484.63
2023-05-24T19:47:25.780Z,100481.31
2023-05-24T19:49:53.755Z,100476.03
2023-05-24T19:52:21.775Z,100464.00
2023-05-24T19:54:49.786Z,100456.16
2023-05-24T19:57:17.723Z,100459.72
2023-05-24T19:59:45.749Z,100462.72
2023-05-24T20:02:15.160Z,100454.59
2023-05-24T20:04:44.115Z,100455.84
2023-05-24T20:07:12.295Z,100445.78
2023-05-24T20:09:41.710Z,100454.03
2023-05-24T20:12:09.850Z,100447.84
2023-05-24T20:14:37.809Z,100444.81
2023-05-24T20:17:06.254Z,100445.09
2023-05-24T20:19:35.772Z,100450.22
2023-05-24T20:22:03.758Z,100447.34
2023-05-24T20:24:31.752Z,100451.78
2023-05-24T20:26:59.730Z,100449.56
2023-05-24T20:29:28.413Z,100452.34
2023-05-24T20:31:56.462Z,100459.84
2023-05-24T20:34:24.436Z,100455.28
2023-05-24T20:36:54.210Z,100448.50
2023-05-24T20:39:22.184Z,100458.75
2023-05-24T20:41:50.157Z,100456.53
2023-05-24T20:44:18.095Z,100459.34
2023-05-24T20:46:46.147Z,100467.63
2023-05-24T20:49:14.096Z,100472.38
2023-05-24T20:51:42.065Z,100469.91
2023-05-24T20:54:13.323Z,100471.28
2023-05-24T20:56:41.271Z,100477.13
2023-05-24T20:59:09.255Z,100478.19
2023-05-24T21:01:37.400Z,100475.84
2023-05-24T21:04:05.424Z,100477.13
2023-05-24T21:06:34.213Z,100485.56
2023-05-24T21:09:02.374Z,100482.66
2023-05-24T21:11:32.612Z,100486.38
2023-05-24T21:14:00.615Z,100486.81
2023-05-24T21:16:29.201Z,100488.88
2023-05-24T21:18:57.227Z,100491.94
2023-05-24T21:21:25.206Z,100493.44
2023-05-24T21:23:53.155Z,100493.03
2023-05-24T21:26:22.810Z,100490.69
2023-05-24T21:28:52.179Z,100496.75
2023-05-24T21:31:20.886Z,100491.66
2023-05-24T21:33:48.932Z,100487.34
2023-05-24T21:36:18.514Z,100497.47
2023-05-24T21:38:46.455Z,100504.50
2023-05-24T21:41:14.428Z,100496.75
2023-05-24T21:43:43.013Z,100502.28
2023-05-24T21:46:12.380Z,100501.44
2023-05-24T21:48:40.406Z,100501.44
2023-05-24T21:51:08.381Z,100501.44
2023-05-24T21:53:36.317Z,100497.84
2023-05-24T21:56:04.271Z,100496.31
2023-05-24T21:58:32.241Z,100492.75
2023-05-24T22:01:00.202Z,100503.09
2023-05-24T22:03:29.765Z,100495.75
2023-05-24T22:05:57.834Z,100490.78
2023-05-24T22:08:25.819Z,100490.59
2023-05-24T22:10:53.914Z,100490.47
2023-05-24T22:13:21.874Z,100489.00
2023-05-24T22:15:49.846Z,100498.25
2023-05-24T22:18:18.476Z,100492.59
2023-05-24T22:20:47.946Z,100501.16
2023-05-24T22:23:16.014Z,100502.38
2023-05-24T22:25:44.946Z,100495.09
2023-05-24T22:28:13.106Z,100490.09
2023-05-24T22:30:41.804Z,100498.09
2023-05-24T22:33:09.790Z,100494.63
2023-05-24T22:35:37.812Z,100495.22
2023-05-24T22:38:07.379Z,100499.06
2023-05-24T22:40:36.693Z,100502.22
2023-05-24T22:43:04.794Z,100503.09
2023-05-24T22:45:32.902Z,100505.03
2023-05-24T22:48:00.895Z,100508.34
2023-05-24T22:50:28.932Z,100503.78
2023-05-24T22:52:56.995Z,100505.28
2023-05-24T22:55:26.324Z,100506.41
2023-05-24T22:57:54.352Z,100505.47
2023-05-24T23:00:22.668Z,100500.03
2023-05-24T23:02:50.685Z,100501.53
2023-05-24T23:05:21.708Z,100500.84
2023-05-24T23:07:49.738Z,100496.09
2023-05-24T23:10:17.857Z,100495.59
2023-05-24T23:12:47.191Z,100495.00
2023-05-24T23:15:18.406Z,100494.50
2023-05-24T23:17:47.131Z,100492.56
2023-05-24T23:20:15.499Z,100487.41
2023-05-24T23:22:43.629Z,100500.78
2023-05-24T23:25:11.943Z,100497.97
2023-05-24T23:27:40.811Z,100501.75
2023-05-24T23:30:11.086Z,100492.78
2023-05-24T23:32:39.074Z,100498.47
2023-05-24T23:35:07.770Z,100494.22
2023-05-24T23:37:35.724Z,100507.44
2023-05-24T23:40:06.626Z,100501.88
2023-05-24T23:42:34.853Z,100495.66
2023-05-24T23:45:02.797Z,100510.44
2023-05-24T23:47:32.134Z,100506.28
2023-05-24T23:50:00.169Z,100498.63
2023-05-24T23:52:28.344Z,100495.31
2023-05-24T23:54:56.289Z,100500.06
2023-05-24T23:57:25.024Z,100505.94
2023-05-24T23:59:53.054Z,100499.97
